Richmond, CA

3:41 PM PST on January 26, 2015 (GMT -0800)
MesoWest | Change Station
CLOSE
Current Station
Personal Weather Station
Location: Richmond, CA
Elevation: 164 ft
Nearby Weather Stations

Elev 164 ft 37.96 °N, 122.42 °W | Updated 1 day ago

Mostly Cloudy
Mostly Cloudy
61 °F
Feels Like 61 °F
N
3
Wind Variable Wind from East
Gusts 5 mph

Today
High -- | Low -- °F
--% Chance of Precip.
Yesterday
High -- | Low -- °F
Precip. -- in
7:18 AM 5:26 PM
Waxing Crescent, 48% visible
Pressure 29.97 in
Visibility 10.0 miles
Clouds Few 1000 ft
Mostly Cloudy 16000 ft
Dew Point 52 °F
Humidity 72%
Rainfall -9999.00 in
Snow Depth Not available.
UV 1 out of 12
Pollen 6.10 out of 12
Air Quality Not available.
Flu Activity Not available.
METAR KOAK 262253Z 25006KT 10SM FEW010 BKN160 15/06 A2997 RMK AO2 SLP148 T01500061

More Conditions Fewer Conditions

Pressure 29.97 in
Visibility 10.0 miles
Clouds Few 1000 ft
Mostly Cloudy 16000 ft
Dew Point 52 °F
Humidity 72%
Rainfall -9999.00 in
Snow Depth Not available.
UV 1 out of 12
Pollen 6.10 out of 12
Air Quality Not available.
Flu Activity Not available.
METAR KOAK 262253Z 25006KT 10SM FEW010 BKN160 15/06 A2997 RMK AO2 SLP148 T01500061

More Conditions Fewer Conditions

10-Day Weather Forecast

Almanac

Astronomy

Jan. 26, 2015 Rise Set
Actual Time
Civil Twilight
Nautical Twilight
Astronomical Twilight
Moon
Length of Visible Light
Length of Day
Tomorrow will be .
, % of the Moon is Illuminated

Today's Extremes

State Highs State Lows

Community

WunderPhotos

Upload Photos

1,790,408 photos uploaded!

WunderBlogs® & News

Nearby

Air Quality

  Air Quality AQ Index Pollutant
Not available.

Snow Depth

Station Depth Elevation

Earthquake Activity

City Distance Mag. Time & Date
Minimum magnitude displayed is 2.5.

Coastal Water Temperatures

Place Temperature

Nearby Weather Stations